sensor_id;sensor_type;location;lat;lon;timestamp;temperature;humidity
75387;DHT22;63966;47.914;22.266;2022-11-15T00:00:43;1.19;95.73
75387;DHT22;63966;47.914;22.266;2022-11-15T00:04:06;1.15;95.79
75387;DHT22;63966;47.914;22.266;2022-11-15T00:07:28;1.11;95.79
75387;DHT22;63966;47.914;22.266;2022-11-15T00:11:11;1.11;95.89
75387;DHT22;63966;47.914;22.266;2022-11-15T00:14:33;1.15;95.87
75387;DHT22;63966;47.914;22.266;2022-11-15T00:17:55;1.08;95.80
75387;DHT22;63966;47.914;22.266;2022-11-15T00:21:17;0.90;95.45
75387;DHT22;63966;47.914;22.266;2022-11-15T00:24:40;0.85;95.39
75387;DHT22;63966;47.914;22.266;2022-11-15T00:28:03;0.88;95.21
75387;DHT22;63966;47.914;22.266;2022-11-15T00:31:24;0.92;95.46
75387;DHT22;63966;47.914;22.266;2022-11-15T00:34:46;0.91;95.70
75387;DHT22;63966;47.914;22.266;2022-11-15T00:38:08;0.87;95.57
75387;DHT22;63966;47.914;22.266;2022-11-15T00:41:30;0.85;95.37
75387;DHT22;63966;47.914;22.266;2022-11-15T00:44:52;0.78;95.40
75387;DHT22;63966;47.914;22.266;2022-11-15T00:48:13;0.77;95.11
75387;DHT22;63966;47.914;22.266;2022-11-15T00:51:36;0.77;95.17
75387;DHT22;63966;47.914;22.266;2022-11-15T00:54:58;0.71;95.25
75387;DHT22;63966;47.914;22.266;2022-11-15T00:58:19;0.70;95.26
75387;DHT22;63966;47.914;22.266;2022-11-15T01:01:41;0.66;95.09
75387;DHT22;63966;47.914;22.266;2022-11-15T01:05:03;0.57;95.19
75387;DHT22;63966;47.914;22.266;2022-11-15T01:08:25;0.57;95.26
75387;DHT22;63966;47.914;22.266;2022-11-15T01:11:47;0.48;95.17
75387;DHT22;63966;47.914;22.266;2022-11-15T01:15:09;0.43;95.14
75387;DHT22;63966;47.914;22.266;2022-11-15T01:18:31;0.35;95.22
75387;DHT22;63966;47.914;22.266;2022-11-15T01:21:53;0.39;95.16
75387;DHT22;63966;47.914;22.266;2022-11-15T01:25:15;0.35;95.40
75387;DHT22;63966;47.914;22.266;2022-11-15T01:28:39;0.32;95.52
75387;DHT22;63966;47.914;22.266;2022-11-15T01:32:01;0.32;95.93
75387;DHT22;63966;47.914;22.266;2022-11-15T01:35:23;0.39;96.12
75387;DHT22;63966;47.914;22.266;2022-11-15T01:38:46;0.35;96.09
75387;DHT22;63966;47.914;22.266;2022-11-15T01:42:13;0.35;96.25
75387;DHT22;63966;47.914;22.266;2022-11-15T01:45:35;0.33;96.24
75387;DHT22;63966;47.914;22.266;2022-11-15T01:49:16;0.36;96.13
75387;DHT22;63966;47.914;22.266;2022-11-15T01:52:40;0.29;95.88
75387;DHT22;63966;47.914;22.266;2022-11-15T01:56:04;0.26;95.58
75387;DHT22;63966;47.914;22.266;2022-11-15T01:59:27;0.22;95.40
75387;DHT22;63966;47.914;22.266;2022-11-15T02:02:49;0.18;95.13
75387;DHT22;63966;47.914;22.266;2022-11-15T02:06:12;0.06;95.16
75387;DHT22;63966;47.914;22.266;2022-11-15T02:09:36;0.02;95.33
75387;DHT22;63966;47.914;22.266;2022-11-15T02:13:00;0.03;95.38
75387;DHT22;63966;47.914;22.266;2022-11-15T02:20:47;0.08;95.48
75387;DHT22;63966;47.914;22.266;2022-11-15T02:24:23;0.11;95.39
75387;DHT22;63966;47.914;22.266;2022-11-15T02:31:50;0.02;95.53
75387;DHT22;63966;47.914;22.266;2022-11-15T02:42:35;0.02;95.62
75387;DHT22;63966;47.914;22.266;2022-11-15T02:46:38;0.03;95.50
75387;DHT22;63966;47.914;22.266;2022-11-15T02:50:25;0.03;95.42
75387;DHT22;63966;47.914;22.266;2022-11-15T02:53:47;-0.03;95.15
75387;DHT22;63966;47.914;22.266;2022-11-15T02:57:16;-0.27;94.68
75387;DHT22;63966;47.914;22.266;2022-11-15T03:00:58;-0.20;94.72
75387;DHT22;63966;47.914;22.266;2022-11-15T03:04:37;-0.26;94.50
75387;DHT22;63966;47.914;22.266;2022-11-15T03:11:43;-0.20;95.03
75387;DHT22;63966;47.914;22.266;2022-11-15T03:15:18;-0.15;94.90
75387;DHT22;63966;47.914;22.266;2022-11-15T03:18:48;-0.06;94.86
75387;DHT22;63966;47.914;22.266;2022-11-15T03:22:17;0.01;94.78
75387;DHT22;63966;47.914;22.266;2022-11-15T03:25:46;0.02;94.92
75387;DHT22;63966;47.914;22.266;2022-11-15T03:29:17;-0.05;95.01
75387;DHT22;63966;47.914;22.266;2022-11-15T03:32:49;-0.13;95.20
75387;DHT22;63966;47.914;22.266;2022-11-15T03:36:12;-0.25;95.25
75387;DHT22;63966;47.914;22.266;2022-11-15T03:39:34;-0.22;95.36
75387;DHT22;63966;47.914;22.266;2022-11-15T03:46:36;-0.18;95.32
75387;DHT22;63966;47.914;22.266;2022-11-15T03:50:13;-0.16;95.38
75387;DHT22;63966;47.914;22.266;2022-11-15T03:53:35;-0.16;95.05
75387;DHT22;63966;47.914;22.266;2022-11-15T03:56:57;-0.19;94.72
75387;DHT22;63966;47.914;22.266;2022-11-15T04:00:19;-0.20;94.76
75387;DHT22;63966;47.914;22.266;2022-11-15T04:03:41;-0.37;94.61
75387;DHT22;63966;47.914;22.266;2022-11-15T04:07:03;-0.37;94.92
75387;DHT22;63966;47.914;22.266;2022-11-15T04:10:26;-0.39;95.22
75387;DHT22;63966;47.914;22.266;2022-11-15T04:13:47;-0.34;95.32
75387;DHT22;63966;47.914;22.266;2022-11-15T04:17:09;-0.32;95.19
75387;DHT22;63966;47.914;22.266;2022-11-15T04:20:33;-0.43;95.37
75387;DHT22;63966;47.914;22.266;2022-11-15T04:24:13;-0.33;95.79
75387;DHT22;63966;47.914;22.266;2022-11-15T04:27:35;-0.25;95.90
75387;DHT22;63966;47.914;22.266;2022-11-15T04:30:57;-0.33;95.70
75387;DHT22;63966;47.914;22.266;2022-11-15T04:34:19;-0.40;95.21
75387;DHT22;63966;47.914;22.266;2022-11-15T04:37:41;-0.44;94.75
75387;DHT22;63966;47.914;22.266;2022-11-15T04:41:09;-0.44;94.53
75387;DHT22;63966;47.914;22.266;2022-11-15T04:44:31;-0.39;94.89
75387;DHT22;63966;47.914;22.266;2022-11-15T04:47:53;-0.26;94.98
75387;DHT22;63966;47.914;22.266;2022-11-15T04:51:15;-0.22;94.76
75387;DHT22;63966;47.914;22.266;2022-11-15T04:54:36;-0.27;94.34
75387;DHT22;63966;47.914;22.266;2022-11-15T04:58:02;-0.19;94.15
75387;DHT22;63966;47.914;22.266;2022-11-15T05:01:25;-0.10;94.10
75387;DHT22;63966;47.914;22.266;2022-11-15T05:04:47;-0.08;93.91
75387;DHT22;63966;47.914;22.266;2022-11-15T05:08:09;-0.12;93.72
75387;DHT22;63966;47.914;22.266;2022-11-15T05:11:32;-0.13;94.71
75387;DHT22;63966;47.914;22.266;2022-11-15T05:14:54;-0.05;94.98
75387;DHT22;63966;47.914;22.266;2022-11-15T05:18:16;-0.13;95.08
75387;DHT22;63966;47.914;22.266;2022-11-15T05:21:44;-0.15;95.24
75387;DHT22;63966;47.914;22.266;2022-11-15T05:25:06;-0.15;95.19
75387;DHT22;63966;47.914;22.266;2022-11-15T05:28:28;-0.15;95.16
75387;DHT22;63966;47.914;22.266;2022-11-15T05:31:51;-0.15;95.00
75387;DHT22;63966;47.914;22.266;2022-11-15T05:35:18;-0.15;95.08
75387;DHT22;63966;47.914;22.266;2022-11-15T05:38:42;-0.16;95.11
75387;DHT22;63966;47.914;22.266;2022-11-15T05:42:09;-0.22;95.05
75387;DHT22;63966;47.914;22.266;2022-11-15T05:45:32;-0.22;95.17
75387;DHT22;63966;47.914;22.266;2022-11-15T05:48:56;-0.22;95.39
75387;DHT22;63966;47.914;22.266;2022-11-15T05:52:22;-0.09;95.33
75387;DHT22;63966;47.914;22.266;2022-11-15T05:55:46;0.02;95.02
75387;DHT22;63966;47.914;22.266;2022-11-15T05:59:08;0.06;94.58
75387;DHT22;63966;47.914;22.266;2022-11-15T06:02:30;0.09;94.23
75387;DHT22;63966;47.914;22.266;2022-11-15T06:05:52;0.19;93.95
75387;DHT22;63966;47.914;22.266;2022-11-15T06:09:14;0.23;93.67
75387;DHT22;63966;47.914;22.266;2022-11-15T06:12:36;0.33;93.56
75387;DHT22;63966;47.914;22.266;2022-11-15T06:15:57;0.39;93.35
75387;DHT22;63966;47.914;22.266;2022-11-15T06:19:19;0.35;93.08
75387;DHT22;63966;47.914;22.266;2022-11-15T06:22:42;0.43;93.18
75387;DHT22;63966;47.914;22.266;2022-11-15T06:26:04;0.54;92.47
75387;DHT22;63966;47.914;22.266;2022-11-15T06:29:25;0.57;92.55
75387;DHT22;63966;47.914;22.266;2022-11-15T06:32:48;0.80;92.35
75387;DHT22;63966;47.914;22.266;2022-11-15T06:36:11;0.97;91.79
75387;DHT22;63966;47.914;22.266;2022-11-15T06:39:39;1.22;91.37
75387;DHT22;63966;47.914;22.266;2022-11-15T06:43:00;1.57;90.59
75387;DHT22;63966;47.914;22.266;2022-11-15T06:46:22;1.71;89.66
75387;DHT22;63966;47.914;22.266;2022-11-15T06:49:44;1.81;88.77
75387;DHT22;63966;47.914;22.266;2022-11-15T06:53:06;1.94;89.19
75387;DHT22;63966;47.914;22.266;2022-11-15T06:56:28;2.01;89.58
75387;DHT22;63966;47.914;22.266;2022-11-15T06:59:50;2.34;89.10
75387;DHT22;63966;47.914;22.266;2022-11-15T07:03:12;2.42;88.07
75387;DHT22;63966;47.914;22.266;2022-11-15T07:06:34;2.52;88.48
75387;DHT22;63966;47.914;22.266;2022-11-15T07:09:56;2.73;87.92
75387;DHT22;63966;47.914;22.266;2022-11-15T07:13:18;2.86;86.83
75387;DHT22;63966;47.914;22.266;2022-11-15T07:16:39;2.97;86.42
75387;DHT22;63966;47.914;22.266;2022-11-15T07:20:01;2.96;86.51
75387;DHT22;63966;47.914;22.266;2022-11-15T07:23:23;3.01;86.52
75387;DHT22;63966;47.914;22.266;2022-11-15T07:26:46;3.11;86.46
75387;DHT22;63966;47.914;22.266;2022-11-15T07:30:08;3.08;86.96
75387;DHT22;63966;47.914;22.266;2022-11-15T07:33:30;3.14;86.51
75387;DHT22;63966;47.914;22.266;2022-11-15T07:36:53;3.56;86.26
75387;DHT22;63966;47.914;22.266;2022-11-15T07:40:15;3.82;85.43
75387;DHT22;63966;47.914;22.266;2022-11-15T07:43:37;3.85;85.29
75387;DHT22;63966;47.914;22.266;2022-11-15T07:46:59;3.93;85.03
75387;DHT22;63966;47.914;22.266;2022-11-15T07:50:22;4.18;84.95
75387;DHT22;63966;47.914;22.266;2022-11-15T07:53:45;4.17;85.41
75387;DHT22;63966;47.914;22.266;2022-11-15T07:57:06;4.30;85.11
75387;DHT22;63966;47.914;22.266;2022-11-15T08:00:31;4.58;84.19
75387;DHT22;63966;47.914;22.266;2022-11-15T08:03:54;4.62;85.18
75387;DHT22;63966;47.914;22.266;2022-11-15T08:07:15;4.37;85.45
75387;DHT22;63966;47.914;22.266;2022-11-15T08:10:38;4.30;86.06
75387;DHT22;63966;47.914;22.266;2022-11-15T08:14:01;4.30;86.32
75387;DHT22;63966;47.914;22.266;2022-11-15T08:17:24;4.33;87.62
75387;DHT22;63966;47.914;22.266;2022-11-15T08:20:48;4.56;87.96
75387;DHT22;63966;47.914;22.266;2022-11-15T08:24:10;4.66;88.83
75387;DHT22;63966;47.914;22.266;2022-11-15T08:27:32;4.92;88.65
75387;DHT22;63966;47.914;22.266;2022-11-15T08:30:55;5.24;88.27
75387;DHT22;63966;47.914;22.266;2022-11-15T08:34:17;5.37;87.73
75387;DHT22;63966;47.914;22.266;2022-11-15T08:37:39;5.62;85.71
75387;DHT22;63966;47.914;22.266;2022-11-15T08:41:04;5.82;86.04
75387;DHT22;63966;47.914;22.266;2022-11-15T08:44:27;5.88;86.49
75387;DHT22;63966;47.914;22.266;2022-11-15T08:47:49;5.90;84.51
75387;DHT22;63966;47.914;22.266;2022-11-15T08:51:15;6.09;85.08
75387;DHT22;63966;47.914;22.266;2022-11-15T08:54:37;6.31;83.63
75387;DHT22;63966;47.914;22.266;2022-11-15T08:57:58;6.59;82.95
75387;DHT22;63966;47.914;22.266;2022-11-15T09:01:23;6.67;82.18
75387;DHT22;63966;47.914;22.266;2022-11-15T09:04:45;6.78;82.78
75387;DHT22;63966;47.914;22.266;2022-11-15T09:08:07;6.96;83.85
75387;DHT22;63966;47.914;22.266;2022-11-15T09:11:49;7.15;80.84
75387;DHT22;63966;47.914;22.266;2022-11-15T09:15:12;7.26;80.57
75387;DHT22;63966;47.914;22.266;2022-11-15T09:18:34;7.43;80.13
75387;DHT22;63966;47.914;22.266;2022-11-15T09:21:56;7.48;79.99
75387;DHT22;63966;47.914;22.266;2022-11-15T09:25:18;7.55;78.41
75387;DHT22;63966;47.914;22.266;2022-11-15T09:28:40;7.57;77.20
75387;DHT22;63966;47.914;22.266;2022-11-15T09:32:03;7.64;77.64
75387;DHT22;63966;47.914;22.266;2022-11-15T09:35:25;7.65;78.05
75387;DHT22;63966;47.914;22.266;2022-11-15T09:38:47;7.70;79.39
75387;DHT22;63966;47.914;22.266;2022-11-15T09:49:25;7.91;78.13
75387;DHT22;63966;47.914;22.266;2022-11-15T09:52:44;8.07;77.73
75387;DHT22;63966;47.914;22.266;2022-11-15T10:05:27;8.13;78.42
75387;DHT22;63966;47.914;22.266;2022-11-15T10:11:47;8.21;79.11
75387;DHT22;63966;47.914;22.266;2022-11-15T10:15:03;8.37;76.79
75387;DHT22;63966;47.914;22.266;2022-11-15T10:21:27;8.67;76.56
75387;DHT22;63966;47.914;22.266;2022-11-15T10:24:39;8.81;75.92
75387;DHT22;63966;47.914;22.266;2022-11-15T10:27:44;8.95;74.67
75387;DHT22;63966;47.914;22.266;2022-11-15T10:30:58;8.98;75.73
75387;DHT22;63966;47.914;22.266;2022-11-15T10:34:16;9.01;75.17
75387;DHT22;63966;47.914;22.266;2022-11-15T10:37:30;9.08;75.54
75387;DHT22;63966;47.914;22.266;2022-11-15T10:40:37;9.29;74.25
75387;DHT22;63966;47.914;22.266;2022-11-15T10:43:42;9.36;73.29
75387;DHT22;63966;47.914;22.266;2022-11-15T10:49:57;9.25;74.49
75387;DHT22;63966;47.914;22.266;2022-11-15T10:53:01;9.22;74.01
75387;DHT22;63966;47.914;22.266;2022-11-15T10:56:08;9.43;73.25
75387;DHT22;63966;47.914;22.266;2022-11-15T10:59:26;9.43;73.73
75387;DHT22;63966;47.914;22.266;2022-11-15T11:08:59;9.73;72.03
75387;DHT22;63966;47.914;22.266;2022-11-15T11:12:04;9.97;70.87
75387;DHT22;63966;47.914;22.266;2022-11-15T11:15:11;9.80;72.19
75387;DHT22;63966;47.914;22.266;2022-11-15T11:18:25;9.69;71.94
75387;DHT22;63966;47.914;22.266;2022-11-15T11:41:39;10.16;72.04
75387;DHT22;63966;47.914;22.266;2022-11-15T11:51:28;10.11;72.79
75387;DHT22;63966;47.914;22.266;2022-11-15T11:54:54;10.07;72.39
75387;DHT22;63966;47.914;22.266;2022-11-15T12:01:46;9.90;72.72
75387;DHT22;63966;47.914;22.266;2022-11-15T12:04:52;9.91;72.62
75387;DHT22;63966;47.914;22.266;2022-11-15T12:15:01;10.28;72.47
75387;DHT22;63966;47.914;22.266;2022-11-15T12:18:07;10.52;72.11
75387;DHT22;63966;47.914;22.266;2022-11-15T12:24:45;11.20;70.45
75387;DHT22;63966;47.914;22.266;2022-11-15T12:28:12;11.48;69.15
75387;DHT22;63966;47.914;22.266;2022-11-15T12:31:38;11.69;67.88
75387;DHT22;63966;47.914;22.266;2022-11-15T12:34:45;11.76;67.48
75387;DHT22;63966;47.914;22.266;2022-11-15T12:37:52;11.89;66.85
75387;DHT22;63966;47.914;22.266;2022-11-15T12:41:15;11.97;66.58
75387;DHT22;63966;47.914;22.266;2022-11-15T12:47:39;11.90;66.02
75387;DHT22;63966;47.914;22.266;2022-11-15T12:53:58;11.75;66.08
75387;DHT22;63966;47.914;22.266;2022-11-15T13:03:21;11.35;67.70
75387;DHT22;63966;47.914;22.266;2022-11-15T13:06:40;11.29;67.93
75387;DHT22;63966;47.914;22.266;2022-11-15T13:15:59;10.96;68.68
75387;DHT22;63966;47.914;22.266;2022-11-15T13:19:02;10.87;68.91
75387;DHT22;63966;47.914;22.266;2022-11-15T13:22:10;10.83;68.89
75387;DHT22;63966;47.914;22.266;2022-11-15T13:28:45;10.83;69.51
75387;DHT22;63966;47.914;22.266;2022-11-15T13:31:50;10.91;69.15
75387;DHT22;63966;47.914;22.266;2022-11-15T13:34:54;10.97;68.78
75387;DHT22;63966;47.914;22.266;2022-11-15T13:38:04;11.00;68.47
75387;DHT22;63966;47.914;22.266;2022-11-15T13:41:19;11.01;68.93
75387;DHT22;63966;47.914;22.266;2022-11-15T13:44:26;11.04;68.84
75387;DHT22;63966;47.914;22.266;2022-11-15T13:47:30;11.06;68.88
75387;DHT22;63966;47.914;22.266;2022-11-15T13:50:37;11.03;69.93
75387;DHT22;63966;47.914;22.266;2022-11-15T13:53:45;11.03;69.87
75387;DHT22;63966;47.914;22.266;2022-11-15T13:57:02;10.97;70.30
75387;DHT22;63966;47.914;22.266;2022-11-15T14:00:24;10.97;70.51
75387;DHT22;63966;47.914;22.266;2022-11-15T14:03:39;10.94;70.60
75387;DHT22;63966;47.914;22.266;2022-11-15T14:06:48;10.90;71.16
75387;DHT22;63966;47.914;22.266;2022-11-15T14:09:52;10.89;70.85
75387;DHT22;63966;47.914;22.266;2022-11-15T14:12:55;10.83;71.34
75387;DHT22;63966;47.914;22.266;2022-11-15T14:16:20;10.76;71.69
75387;DHT22;63966;47.914;22.266;2022-11-15T14:22:29;10.67;72.12
75387;DHT22;63966;47.914;22.266;2022-11-15T14:25:34;10.64;72.64
75387;DHT22;63966;47.914;22.266;2022-11-15T14:28:38;10.63;72.73
75387;DHT22;63966;47.914;22.266;2022-11-15T14:31:42;10.59;72.79
75387;DHT22;63966;47.914;22.266;2022-11-15T14:34:46;10.49;73.52
75387;DHT22;63966;47.914;22.266;2022-11-15T14:37:50;10.42;73.63
75387;DHT22;63966;47.914;22.266;2022-11-15T14:40:54;10.32;74.05
75387;DHT22;63966;47.914;22.266;2022-11-15T14:43:58;10.24;74.51
75387;DHT22;63966;47.914;22.266;2022-11-15T14:47:02;10.14;75.13
75387;DHT22;63966;47.914;22.266;2022-11-15T14:50:06;10.04;75.82
75387;DHT22;63966;47.914;22.266;2022-11-15T14:53:20;9.97;76.09
75387;DHT22;63966;47.914;22.266;2022-11-15T14:56:25;9.90;76.38
75387;DHT22;63966;47.914;22.266;2022-11-15T14:59:28;9.83;76.67
75387;DHT22;63966;47.914;22.266;2022-11-15T15:02:32;9.76;76.88
75387;DHT22;63966;47.914;22.266;2022-11-15T15:05:41;9.71;77.03
75387;DHT22;63966;47.914;22.266;2022-11-15T15:08:46;9.66;77.31
75387;DHT22;63966;47.914;22.266;2022-11-15T15:11:53;9.63;77.29
75387;DHT22;63966;47.914;22.266;2022-11-15T15:14:57;9.60;77.40
75387;DHT22;63966;47.914;22.266;2022-11-15T15:18:02;9.57;77.50
75387;DHT22;63966;47.914;22.266;2022-11-15T15:21:27;9.60;77.31
75387;DHT22;63966;47.914;22.266;2022-11-15T15:24:39;9.60;77.23
75387;DHT22;63966;47.914;22.266;2022-11-15T15:27:42;9.60;77.63
75387;DHT22;63966;47.914;22.266;2022-11-15T15:30:48;9.57;77.81
75387;DHT22;63966;47.914;22.266;2022-11-15T15:33:52;9.50;77.58
75387;DHT22;63966;47.914;22.266;2022-11-15T15:40:27;9.50;77.36
75387;DHT22;63966;47.914;22.266;2022-11-15T15:43:31;9.50;77.37
75387;DHT22;63966;47.914;22.266;2022-11-15T15:46:34;9.50;77.61
75387;DHT22;63966;47.914;22.266;2022-11-15T15:49:38;9.50;77.73
75387;DHT22;63966;47.914;22.266;2022-11-15T15:52:42;9.46;77.69
75387;DHT22;63966;47.914;22.266;2022-11-15T15:55:45;9.46;77.62
75387;DHT22;63966;47.914;22.266;2022-11-15T15:58:49;9.50;77.60
75387;DHT22;63966;47.914;22.266;2022-11-15T16:01:52;9.50;78.07
75387;DHT22;63966;47.914;22.266;2022-11-15T16:04:57;9.49;78.18
75387;DHT22;63966;47.914;22.266;2022-11-15T16:08:00;9.40;78.76
75387;DHT22;63966;47.914;22.266;2022-11-15T16:11:05;9.49;78.08
75387;DHT22;63966;47.914;22.266;2022-11-15T16:14:09;9.38;78.71
75387;DHT22;63966;47.914;22.266;2022-11-15T16:17:17;9.28;78.52
75387;DHT22;63966;47.914;22.266;2022-11-15T16:20:34;9.28;78.34
75387;DHT22;63966;47.914;22.266;2022-11-15T16:23:38;9.38;78.15
75387;DHT22;63966;47.914;22.266;2022-11-15T16:26:42;9.36;78.08
75387;DHT22;63966;47.914;22.266;2022-11-15T16:29:46;9.32;78.21
75387;DHT22;63966;47.914;22.266;2022-11-15T16:32:50;9.26;78.75
75387;DHT22;63966;47.914;22.266;2022-11-15T16:35:54;9.25;79.02
75387;DHT22;63966;47.914;22.266;2022-11-15T16:38:58;9.22;79.28
75387;DHT22;63966;47.914;22.266;2022-11-15T16:42:02;9.16;79.73
75387;DHT22;63966;47.914;22.266;2022-11-15T16:45:07;9.07;80.29
75387;DHT22;63966;47.914;22.266;2022-11-15T16:48:25;9.07;80.36
75387;DHT22;63966;47.914;22.266;2022-11-15T16:51:29;9.09;80.66
75387;DHT22;63966;47.914;22.266;2022-11-15T16:54:33;8.98;81.08
75387;DHT22;63966;47.914;22.266;2022-11-15T16:57:36;8.89;81.49
75387;DHT22;63966;47.914;22.266;2022-11-15T17:00:42;8.81;81.80
75387;DHT22;63966;47.914;22.266;2022-11-15T17:03:46;8.71;82.07
75387;DHT22;63966;47.914;22.266;2022-11-15T17:06:50;8.63;82.38
75387;DHT22;63966;47.914;22.266;2022-11-15T17:09:53;8.59;82.47
75387;DHT22;63966;47.914;22.266;2022-11-15T17:12:57;8.59;82.59
75387;DHT22;63966;47.914;22.266;2022-11-15T17:16:13;8.59;82.46
75387;DHT22;63966;47.914;22.266;2022-11-15T17:19:20;8.67;81.89
75387;DHT22;63966;47.914;22.266;2022-11-15T17:22:24;8.75;81.55
75387;DHT22;63966;47.914;22.266;2022-11-15T17:25:27;8.80;81.48
75387;DHT22;63966;47.914;22.266;2022-11-15T17:28:35;8.81;81.96
75387;DHT22;63966;47.914;22.266;2022-11-15T17:31:38;8.78;82.35
75387;DHT22;63966;47.914;22.266;2022-11-15T17:34:42;8.80;82.01
75387;DHT22;63966;47.914;22.266;2022-11-15T17:37:45;8.74;82.24
75387;DHT22;63966;47.914;22.266;2022-11-15T17:41:00;8.74;82.74
75387;DHT22;63966;47.914;22.266;2022-11-15T17:44:04;8.75;82.96
75387;DHT22;63966;47.914;22.266;2022-11-15T17:47:07;8.75;82.18
75387;DHT22;63966;47.914;22.266;2022-11-15T17:50:11;8.72;82.68
75387;DHT22;63966;47.914;22.266;2022-11-15T17:53:15;8.60;83.61
75387;DHT22;63966;47.914;22.266;2022-11-15T17:56:21;8.61;83.68
75387;DHT22;63966;47.914;22.266;2022-11-15T17:59:24;8.59;84.06
75387;DHT22;63966;47.914;22.266;2022-11-15T18:02:28;8.57;84.36
75387;DHT22;63966;47.914;22.266;2022-11-15T18:05:32;8.56;84.41
75387;DHT22;63966;47.914;22.266;2022-11-15T18:08:37;8.56;84.50
75387;DHT22;63966;47.914;22.266;2022-11-15T18:11:41;8.53;84.74
75387;DHT22;63966;47.914;22.266;2022-11-15T18:14:46;8.56;85.02
75387;DHT22;63966;47.914;22.266;2022-11-15T18:17:50;8.57;85.45
75387;DHT22;63966;47.914;22.266;2022-11-15T18:21:21;8.53;85.97
75387;DHT22;63966;47.914;22.266;2022-11-15T18:24:30;8.53;86.48
75387;DHT22;63966;47.914;22.266;2022-11-15T18:27:34;8.51;87.05
75387;DHT22;63966;47.914;22.266;2022-11-15T18:30:38;8.44;87.43
75387;DHT22;63966;47.914;22.266;2022-11-15T18:33:43;8.37;87.77
75387;DHT22;63966;47.914;22.266;2022-11-15T18:36:50;8.21;88.05
75387;DHT22;63966;47.914;22.266;2022-11-15T18:39:54;8.29;88.09
75387;DHT22;63966;47.914;22.266;2022-11-15T18:42:58;8.33;87.66
75387;DHT22;63966;47.914;22.266;2022-11-15T18:49:08;8.47;86.45
75387;DHT22;63966;47.914;22.266;2022-11-15T18:52:12;8.46;87.02
75387;DHT22;63966;47.914;22.266;2022-11-15T18:55:16;8.51;87.50
75387;DHT22;63966;47.914;22.266;2022-11-15T18:58:19;8.50;87.64
75387;DHT22;63966;47.914;22.266;2022-11-15T19:01:25;8.42;88.48
75387;DHT22;63966;47.914;22.266;2022-11-15T19:04:29;8.33;89.18
75387;DHT22;63966;47.914;22.266;2022-11-15T19:07:32;8.26;89.73
75387;DHT22;63966;47.914;22.266;2022-11-15T19:10:38;8.09;90.37
75387;DHT22;63966;47.914;22.266;2022-11-15T19:13:43;8.13;90.61
75387;DHT22;63966;47.914;22.266;2022-11-15T19:16:48;8.19;90.49
75387;DHT22;63966;47.914;22.266;2022-11-15T19:19:54;8.28;90.14
75387;DHT22;63966;47.914;22.266;2022-11-15T19:22:58;8.36;89.89
75387;DHT22;63966;47.914;22.266;2022-11-15T19:26:09;8.37;89.83
75387;DHT22;63966;47.914;22.266;2022-11-15T19:29:13;8.30;90.05
75387;DHT22;63966;47.914;22.266;2022-11-15T19:32:17;8.17;90.69
75387;DHT22;63966;47.914;22.266;2022-11-15T19:35:21;8.22;91.15
75387;DHT22;63966;47.914;22.266;2022-11-15T19:38:24;8.26;90.86
75387;DHT22;63966;47.914;22.266;2022-11-15T19:41:28;8.23;90.92
75387;DHT22;63966;47.914;22.266;2022-11-15T19:44:31;8.25;91.07
75387;DHT22;63966;47.914;22.266;2022-11-15T19:47:35;8.23;91.09
75387;DHT22;63966;47.914;22.266;2022-11-15T19:50:40;8.25;91.06
75387;DHT22;63966;47.914;22.266;2022-11-15T19:53:43;8.21;91.23
75387;DHT22;63966;47.914;22.266;2022-11-15T19:56:47;8.21;91.29
75387;DHT22;63966;47.914;22.266;2022-11-15T19:59:51;8.17;91.28
75387;DHT22;63966;47.914;22.266;2022-11-15T20:02:54;8.16;91.43
75387;DHT22;63966;47.914;22.266;2022-11-15T20:06:08;8.28;91.17
75387;DHT22;63966;47.914;22.266;2022-11-15T20:09:14;8.28;91.20
75387;DHT22;63966;47.914;22.266;2022-11-15T20:12:18;8.30;90.86
75387;DHT22;63966;47.914;22.266;2022-11-15T20:15:21;8.29;90.70
75387;DHT22;63966;47.914;22.266;2022-11-15T20:18:26;8.36;90.47
75387;DHT22;63966;47.914;22.266;2022-11-15T20:21:30;8.34;90.89
75387;DHT22;63966;47.914;22.266;2022-11-15T20:24:33;8.29;90.93
75387;DHT22;63966;47.914;22.266;2022-11-15T20:27:37;8.40;90.65
75387;DHT22;63966;47.914;22.266;2022-11-15T20:30:43;8.34;90.65
75387;DHT22;63966;47.914;22.266;2022-11-15T20:33:47;8.25;90.97
75387;DHT22;63966;47.914;22.266;2022-11-15T20:36:51;8.22;91.00
75387;DHT22;63966;47.914;22.266;2022-11-15T20:39:54;8.17;91.17
75387;DHT22;63966;47.914;22.266;2022-11-15T20:42:58;8.19;91.17
75387;DHT22;63966;47.914;22.266;2022-11-15T20:46:01;8.21;91.08
75387;DHT22;63966;47.914;22.266;2022-11-15T20:49:05;8.19;91.10
75387;DHT22;63966;47.914;22.266;2022-11-15T20:52:09;8.22;91.05
75387;DHT22;63966;47.914;22.266;2022-11-15T20:55:13;8.21;91.01
75387;DHT22;63966;47.914;22.266;2022-11-15T20:58:17;8.23;90.84
75387;DHT22;63966;47.914;22.266;2022-11-15T21:01:20;8.28;90.73
75387;DHT22;63966;47.914;22.266;2022-11-15T21:04:26;8.25;91.01
75387;DHT22;63966;47.914;22.266;2022-11-15T21:07:30;8.26;91.04
75387;DHT22;63966;47.914;22.266;2022-11-15T21:10:37;8.30;91.08
75387;DHT22;63966;47.914;22.266;2022-11-15T21:13:59;8.28;91.33
75387;DHT22;63966;47.914;22.266;2022-11-15T21:17:10;8.23;91.63
75387;DHT22;63966;47.914;22.266;2022-11-15T21:20:14;8.29;91.56
75387;DHT22;63966;47.914;22.266;2022-11-15T21:23:18;8.32;91.47
75387;DHT22;63966;47.914;22.266;2022-11-15T21:26:21;8.33;91.43
75387;DHT22;63966;47.914;22.266;2022-11-15T21:29:25;8.33;91.47
75387;DHT22;63966;47.914;22.266;2022-11-15T21:32:28;8.28;91.57
75387;DHT22;63966;47.914;22.266;2022-11-15T21:35:32;8.23;91.75
75387;DHT22;63966;47.914;22.266;2022-11-15T21:38:35;8.19;92.00
75387;DHT22;63966;47.914;22.266;2022-11-15T21:41:39;8.16;92.34
75387;DHT22;63966;47.914;22.266;2022-11-15T21:44:42;8.03;92.59
75387;DHT22;63966;47.914;22.266;2022-11-15T21:47:46;7.99;92.87
75387;DHT22;63966;47.914;22.266;2022-11-15T21:50:58;7.96;93.20
75387;DHT22;63966;47.914;22.266;2022-11-15T21:54:02;7.95;93.29
75387;DHT22;63966;47.914;22.266;2022-11-15T21:57:05;8.09;92.82
75387;DHT22;63966;47.914;22.266;2022-11-15T22:00:09;8.06;92.87
75387;DHT22;63966;47.914;22.266;2022-11-15T22:03:31;8.09;92.62
75387;DHT22;63966;47.914;22.266;2022-11-15T22:06:35;8.10;92.24
75387;DHT22;63966;47.914;22.266;2022-11-15T22:09:38;8.15;92.32
75387;DHT22;63966;47.914;22.266;2022-11-15T22:12:42;8.17;92.43
75387;DHT22;63966;47.914;22.266;2022-11-15T22:15:46;8.15;92.44
75387;DHT22;63966;47.914;22.266;2022-11-15T22:18:49;8.16;92.44
75387;DHT22;63966;47.914;22.266;2022-11-15T22:21:53;8.13;92.26
75387;DHT22;63966;47.914;22.266;2022-11-15T22:24:56;8.07;92.37
75387;DHT22;63966;47.914;22.266;2022-11-15T22:28:00;8.05;92.62
75387;DHT22;63966;47.914;22.266;2022-11-15T22:31:05;8.10;92.64